sensor_id;sensor_type;location;lat;lon;timestamp;P1;durP1;ratioP1;P2;durP2;ratioP2
56319;SDS011;42226;42.382;23.748;2023-05-16T00:01:10;30.98;;;27.85;;
56319;SDS011;42226;42.382;23.748;2023-05-16T00:03:38;31.08;;;27.92;;
56319;SDS011;42226;42.382;23.748;2023-05-16T00:06:06;32.13;;;28.88;;
56319;SDS011;42226;42.382;23.748;2023-05-16T00:08:35;34.15;;;30.60;;
56319;SDS011;42226;42.382;23.748;2023-05-16T00:11:01;35.78;;;31.88;;
56319;SDS011;42226;42.382;23.748;2023-05-16T00:13:29;32.42;;;29.02;;
56319;SDS011;42226;42.382;23.748;2023-05-16T00:15:56;31.55;;;28.55;;
56319;SDS011;42226;42.382;23.748;2023-05-16T00:18:23;31.73;;;28.73;;
56319;SDS011;42226;42.382;23.748;2023-05-16T00:20:51;31.13;;;27.75;;
56319;SDS011;42226;42.382;23.748;2023-05-16T00:23:20;36.30;;;32.58;;
56319;SDS011;42226;42.382;23.748;2023-05-16T00:25:48;33.08;;;29.63;;
56319;SDS011;42226;42.382;23.748;2023-05-16T00:28:15;31.13;;;28.00;;
56319;SDS011;42226;42.382;23.748;2023-05-16T00:30:43;34.33;;;30.80;;
56319;SDS011;42226;42.382;23.748;2023-05-16T00:33:10;40.55;;;36.22;;
56319;SDS011;42226;42.382;23.748;2023-05-16T00:35:38;31.42;;;28.20;;
56319;SDS011;42226;42.382;23.748;2023-05-16T00:38:04;37.15;;;33.30;;
56319;SDS011;42226;42.382;23.748;2023-05-16T00:40:32;32.75;;;29.48;;
56319;SDS011;42226;42.382;23.748;2023-05-16T00:42:59;31.52;;;28.23;;
56319;SDS011;42226;42.382;23.748;2023-05-16T00:45:27;32.20;;;29.10;;
56319;SDS011;42226;42.382;23.748;2023-05-16T00:47:55;43.78;;;36.58;;
56319;SDS011;42226;42.382;23.748;2023-05-16T00:50:23;32.85;;;29.65;;
56319;SDS011;42226;42.382;23.748;2023-05-16T00:52:50;31.40;;;28.20;;
56319;SDS011;42226;42.382;23.748;2023-05-16T00:55:18;29.63;;;26.70;;
56319;SDS011;42226;42.382;23.748;2023-05-16T00:57:45;33.47;;;29.92;;
56319;SDS011;42226;42.382;23.748;2023-05-16T01:00:12;31.42;;;28.40;;
56319;SDS011;42226;42.382;23.748;2023-05-16T01:02:40;36.45;;;30.83;;
56319;SDS011;42226;42.382;23.748;2023-05-16T01:05:07;32.60;;;29.23;;
56319;SDS011;42226;42.382;23.748;2023-05-16T01:07:36;34.47;;;31.00;;
56319;SDS011;42226;42.382;23.748;2023-05-16T01:10:03;43.05;;;35.95;;
56319;SDS011;42226;42.382;23.748;2023-05-16T01:15:34;37.67;;;32.40;;
56319;SDS011;42226;42.382;23.748;2023-05-16T01:18:23;33.20;;;29.70;;
56319;SDS011;42226;42.382;23.748;2023-05-16T01:21:15;33.28;;;29.85;;
56319;SDS011;42226;42.382;23.748;2023-05-16T01:24:03;34.83;;;30.85;;
56319;SDS011;42226;42.382;23.748;2023-05-16T01:26:44;32.72;;;29.52;;
56319;SDS011;42226;42.382;23.748;2023-05-16T01:29:12;37.45;;;33.08;;
56319;SDS011;42226;42.382;23.748;2023-05-16T01:31:40;38.80;;;33.88;;
56319;SDS011;42226;42.382;23.748;2023-05-16T01:34:07;34.33;;;30.77;;
56319;SDS011;42226;42.382;23.748;2023-05-16T01:36:47;40.30;;;35.67;;
56319;SDS011;42226;42.382;23.748;2023-05-16T01:42:47;47.97;;;40.13;;
56319;SDS011;42226;42.382;23.748;2023-05-16T01:48:04;38.22;;;34.25;;
56319;SDS011;42226;42.382;23.748;2023-05-16T01:50:43;46.30;;;39.33;;
56319;SDS011;42226;42.382;23.748;2023-05-16T01:53:28;62.75;;;47.28;;
56319;SDS011;42226;42.382;23.748;2023-05-16T01:56:08;39.53;;;35.20;;
56319;SDS011;42226;42.382;23.748;2023-05-16T01:58:40;44.92;;;38.03;;
56319;SDS011;42226;42.382;23.748;2023-05-16T02:01:07;39.78;;;35.63;;
56319;SDS011;42226;42.382;23.748;2023-05-16T02:03:36;39.40;;;35.30;;
56319;SDS011;42226;42.382;23.748;2023-05-16T02:06:04;50.13;;;42.67;;
56319;SDS011;42226;42.382;23.748;2023-05-16T02:08:32;38.17;;;34.13;;
56319;SDS011;42226;42.382;23.748;2023-05-16T02:10:59;70.68;;;48.33;;
56319;SDS011;42226;42.382;23.748;2023-05-16T02:13:26;41.60;;;36.85;;
56319;SDS011;42226;42.382;23.748;2023-05-16T02:15:54;60.42;;;45.40;;
56319;SDS011;42226;42.382;23.748;2023-05-16T02:18:20;60.90;;;43.25;;
56319;SDS011;42226;42.382;23.748;2023-05-16T02:20:49;45.92;;;40.80;;
56319;SDS011;42226;42.382;23.748;2023-05-16T02:23:16;40.80;;;36.00;;
56319;SDS011;42226;42.382;23.748;2023-05-16T02:25:43;46.85;;;39.45;;
56319;SDS011;42226;42.382;23.748;2023-05-16T02:28:11;43.63;;;38.92;;
56319;SDS011;42226;42.382;23.748;2023-05-16T02:30:38;45.40;;;39.50;;
56319;SDS011;42226;42.382;23.748;2023-05-16T02:33:06;48.40;;;39.95;;
56319;SDS011;42226;42.382;23.748;2023-05-16T02:35:33;46.35;;;40.97;;
56319;SDS011;42226;42.382;23.748;2023-05-16T02:38:01;41.92;;;37.45;;
56319;SDS011;42226;42.382;23.748;2023-05-16T02:40:28;44.60;;;38.53;;
56319;SDS011;42226;42.382;23.748;2023-05-16T02:42:55;90.15;;;54.58;;
56319;SDS011;42226;42.382;23.748;2023-05-16T02:45:22;73.22;;;50.20;;
56319;SDS011;42226;42.382;23.748;2023-05-16T02:47:50;47.83;;;40.20;;
56319;SDS011;42226;42.382;23.748;2023-05-16T02:50:17;81.18;;;51.38;;
56319;SDS011;42226;42.382;23.748;2023-05-16T02:52:45;43.78;;;38.70;;
56319;SDS011;42226;42.382;23.748;2023-05-16T02:55:13;53.67;;;42.67;;
56319;SDS011;42226;42.382;23.748;2023-05-16T02:57:41;49.75;;;41.95;;
56319;SDS011;42226;42.382;23.748;2023-05-16T03:00:08;65.97;;;47.25;;
56319;SDS011;42226;42.382;23.748;2023-05-16T03:02:36;45.83;;;40.83;;
56319;SDS011;42226;42.382;23.748;2023-05-16T03:05:04;73.47;;;49.17;;
56319;SDS011;42226;42.382;23.748;2023-05-16T03:07:31;101.70;;;53.28;;
56319;SDS011;42226;42.382;23.748;2023-05-16T03:09:59;93.78;;;55.60;;
56319;SDS011;42226;42.382;23.748;2023-05-16T03:12:25;95.82;;;55.35;;
56319;SDS011;42226;42.382;23.748;2023-05-16T03:14:53;158.98;;;58.05;;
56319;SDS011;42226;42.382;23.748;2023-05-16T03:17:21;139.40;;;49.72;;
56319;SDS011;42226;42.382;23.748;2023-05-16T03:19:49;154.57;;;54.13;;
56319;SDS011;42226;42.382;23.748;2023-05-16T03:22:16;123.63;;;47.53;;
56319;SDS011;42226;42.382;23.748;2023-05-16T03:24:44;397.95;;;70.72;;
56319;SDS011;42226;42.382;23.748;2023-05-16T03:27:11;233.90;;;54.10;;
56319;SDS011;42226;42.382;23.748;2023-05-16T03:29:38;273.83;;;50.92;;
56319;SDS011;42226;42.382;23.748;2023-05-16T03:32:07;575.25;;;78.65;;
56319;SDS011;42226;42.382;23.748;2023-05-16T03:34:36;179.40;;;50.17;;
56319;SDS011;42226;42.382;23.748;2023-05-16T03:37:04;219.88;;;51.83;;
56319;SDS011;42226;42.382;23.748;2023-05-16T03:39:30;274.17;;;58.50;;
56319;SDS011;42226;42.382;23.748;2023-05-16T03:41:58;195.55;;;52.38;;
56319;SDS011;42226;42.382;23.748;2023-05-16T03:44:26;337.30;;;72.45;;
56319;SDS011;42226;42.382;23.748;2023-05-16T03:46:53;616.70;;;73.15;;
56319;SDS011;42226;42.382;23.748;2023-05-16T03:49:24;446.45;;;93.25;;
56319;SDS011;42226;42.382;23.748;2023-05-16T03:51:55;154.43;;;51.60;;
56319;SDS011;42226;42.382;23.748;2023-05-16T03:54:23;491.35;;;84.18;;
56319;SDS011;42226;42.382;23.748;2023-05-16T03:56:50;133.40;;;51.10;;
56319;SDS011;42226;42.382;23.748;2023-05-16T03:59:18;102.25;;;49.83;;
56319;SDS011;42226;42.382;23.748;2023-05-16T04:01:44;294.70;;;65.63;;
56319;SDS011;42226;42.382;23.748;2023-05-16T04:04:12;246.70;;;76.75;;
56319;SDS011;42226;42.382;23.748;2023-05-16T04:06:39;265.85;;;59.72;;
56319;SDS011;42226;42.382;23.748;2023-05-16T04:09:06;90.15;;;48.05;;
56319;SDS011;42226;42.382;23.748;2023-05-16T04:11:33;89.63;;;48.63;;
56319;SDS011;42226;42.382;23.748;2023-05-16T04:14:01;76.82;;;49.65;;
56319;SDS011;42226;42.382;23.748;2023-05-16T04:16:28;101.22;;;47.97;;
56319;SDS011;42226;42.382;23.748;2023-05-16T04:18:56;63.83;;;46.72;;
56319;SDS011;42226;42.382;23.748;2023-05-16T04:21:24;124.88;;;52.08;;
56319;SDS011;42226;42.382;23.748;2023-05-16T04:23:50;123.63;;;49.63;;
56319;SDS011;42226;42.382;23.748;2023-05-16T04:26:17;145.27;;;60.50;;
56319;SDS011;42226;42.382;23.748;2023-05-16T04:28:46;51.03;;;44.03;;
56319;SDS011;42226;42.382;23.748;2023-05-16T04:31:13;53.83;;;45.55;;
56319;SDS011;42226;42.382;23.748;2023-05-16T04:33:40;48.33;;;42.05;;
56319;SDS011;42226;42.382;23.748;2023-05-16T04:36:08;85.97;;;50.15;;
56319;SDS011;42226;42.382;23.748;2023-05-16T04:38:35;70.40;;;46.67;;
56319;SDS011;42226;42.382;23.748;2023-05-16T04:41:02;60.72;;;45.70;;
56319;SDS011;42226;42.382;23.748;2023-05-16T04:43:30;46.17;;;39.53;;
56319;SDS011;42226;42.382;23.748;2023-05-16T04:45:57;76.20;;;50.08;;
56319;SDS011;42226;42.382;23.748;2023-05-16T04:48:25;44.30;;;37.97;;
56319;SDS011;42226;42.382;23.748;2023-05-16T04:50:51;54.20;;;42.95;;
56319;SDS011;42226;42.382;23.748;2023-05-16T04:53:19;50.08;;;40.95;;
56319;SDS011;42226;42.382;23.748;2023-05-16T04:55:45;72.38;;;48.03;;
56319;SDS011;42226;42.382;23.748;2023-05-16T04:58:13;50.05;;;39.45;;
56319;SDS011;42226;42.382;23.748;2023-05-16T05:00:40;45.40;;;38.47;;
56319;SDS011;42226;42.382;23.748;2023-05-16T05:03:07;45.58;;;39.75;;
56319;SDS011;42226;42.382;23.748;2023-05-16T05:05:35;45.72;;;38.90;;
56319;SDS011;42226;42.382;23.748;2023-05-16T05:08:02;90.50;;;53.05;;
56319;SDS011;42226;42.382;23.748;2023-05-16T05:10:29;69.40;;;47.17;;
56319;SDS011;42226;42.382;23.748;2023-05-16T05:12:57;50.08;;;39.80;;
56319;SDS011;42226;42.382;23.748;2023-05-16T05:15:24;56.22;;;41.33;;
56319;SDS011;42226;42.382;23.748;2023-05-16T05:17:51;50.13;;;40.17;;
56319;SDS011;42226;42.382;23.748;2023-05-16T05:20:18;57.13;;;42.30;;
56319;SDS011;42226;42.382;23.748;2023-05-16T05:22:45;45.90;;;38.42;;
56319;SDS011;42226;42.382;23.748;2023-05-16T05:25:13;71.90;;;46.08;;
56319;SDS011;42226;42.382;23.748;2023-05-16T05:27:40;55.85;;;41.22;;
56319;SDS011;42226;42.382;23.748;2023-05-16T05:30:08;43.90;;;37.55;;
56319;SDS011;42226;42.382;23.748;2023-05-16T05:32:35;44.60;;;36.85;;
56319;SDS011;42226;42.382;23.748;2023-05-16T05:35:03;69.57;;;45.67;;
56319;SDS011;42226;42.382;23.748;2023-05-16T05:37:31;77.47;;;46.78;;
56319;SDS011;42226;42.382;23.748;2023-05-16T05:39:57;52.17;;;41.20;;
56319;SDS011;42226;42.382;23.748;2023-05-16T05:42:25;44.50;;;37.55;;
56319;SDS011;42226;42.382;23.748;2023-05-16T05:44:51;48.58;;;38.75;;
56319;SDS011;42226;42.382;23.748;2023-05-16T05:47:19;46.78;;;38.80;;
56319;SDS011;42226;42.382;23.748;2023-05-16T05:49:46;62.38;;;41.47;;
56319;SDS011;42226;42.382;23.748;2023-05-16T05:52:13;50.80;;;41.03;;
56319;SDS011;42226;42.382;23.748;2023-05-16T05:54:41;114.95;;;52.45;;
56319;SDS011;42226;42.382;23.748;2023-05-16T05:57:08;71.53;;;45.03;;
56319;SDS011;42226;42.382;23.748;2023-05-16T05:59:35;64.70;;;43.33;;
56319;SDS011;42226;42.382;23.748;2023-05-16T06:02:02;479.95;;;66.55;;
56319;SDS011;42226;42.382;23.748;2023-05-16T06:04:29;207.93;;;48.45;;
56319;SDS011;42226;42.382;23.748;2023-05-16T06:06:56;105.35;;;44.97;;
56319;SDS011;42226;42.382;23.748;2023-05-16T06:09:23;58.25;;;45.05;;
56319;SDS011;42226;42.382;23.748;2023-05-16T06:11:50;55.28;;;43.38;;
56319;SDS011;42226;42.382;23.748;2023-05-16T06:14:18;57.13;;;45.03;;
56319;SDS011;42226;42.382;23.748;2023-05-16T06:16:46;57.28;;;43.78;;
56319;SDS011;42226;42.382;23.748;2023-05-16T06:19:13;57.50;;;44.10;;
56319;SDS011;42226;42.382;23.748;2023-05-16T06:21:41;53.50;;;43.08;;
56319;SDS011;42226;42.382;23.748;2023-05-16T06:24:08;53.78;;;42.20;;
56319;SDS011;42226;42.382;23.748;2023-05-16T06:26:38;62.15;;;44.17;;
56319;SDS011;42226;42.382;23.748;2023-05-16T06:29:04;52.85;;;41.85;;
56319;SDS011;42226;42.382;23.748;2023-05-16T06:31:32;66.60;;;44.95;;
56319;SDS011;42226;42.382;23.748;2023-05-16T06:33:58;61.00;;;43.85;;
56319;SDS011;42226;42.382;23.748;2023-05-16T06:36:26;73.07;;;46.22;;
56319;SDS011;42226;42.382;23.748;2023-05-16T06:38:53;53.67;;;40.75;;
56319;SDS011;42226;42.382;23.748;2023-05-16T06:41:20;52.50;;;41.40;;
56319;SDS011;42226;42.382;23.748;2023-05-16T06:43:47;49.17;;;39.97;;
56319;SDS011;42226;42.382;23.748;2023-05-16T06:46:15;51.53;;;41.08;;
56319;SDS011;42226;42.382;23.748;2023-05-16T06:48:42;53.70;;;42.40;;
56319;SDS011;42226;42.382;23.748;2023-05-16T06:51:09;50.72;;;40.83;;
56319;SDS011;42226;42.382;23.748;2023-05-16T06:53:36;58.80;;;41.75;;
56319;SDS011;42226;42.382;23.748;2023-05-16T06:56:03;51.72;;;41.30;;
56319;SDS011;42226;42.382;23.748;2023-05-16T06:58:30;47.78;;;38.60;;
56319;SDS011;42226;42.382;23.748;2023-05-16T07:00:57;44.05;;;38.47;;
56319;SDS011;42226;42.382;23.748;2023-05-16T07:03:24;43.13;;;36.65;;
56319;SDS011;42226;42.382;23.748;2023-05-16T07:05:52;45.85;;;37.38;;
56319;SDS011;42226;42.382;23.748;2023-05-16T07:08:20;42.72;;;37.63;;
56319;SDS011;42226;42.382;23.748;2023-05-16T07:10:47;41.95;;;36.75;;
56319;SDS011;42226;42.382;23.748;2023-05-16T07:13:14;68.07;;;45.00;;
56319;SDS011;42226;42.382;23.748;2023-05-16T07:15:41;43.08;;;35.70;;
56319;SDS011;42226;42.382;23.748;2023-05-16T07:18:08;38.30;;;34.38;;
56319;SDS011;42226;42.382;23.748;2023-05-16T07:20:35;37.65;;;33.65;;
56319;SDS011;42226;42.382;23.748;2023-05-16T07:23:02;37.50;;;33.33;;
56319;SDS011;42226;42.382;23.748;2023-05-16T07:25:29;34.70;;;31.10;;
56319;SDS011;42226;42.382;23.748;2023-05-16T07:27:57;34.95;;;30.35;;
56319;SDS011;42226;42.382;23.748;2023-05-16T07:30:25;33.70;;;30.10;;
56319;SDS011;42226;42.382;23.748;2023-05-16T07:32:53;32.92;;;29.63;;
56319;SDS011;42226;42.382;23.748;2023-05-16T07:35:20;33.70;;;30.00;;
56319;SDS011;42226;42.382;23.748;2023-05-16T07:37:48;29.73;;;26.75;;
56319;SDS011;42226;42.382;23.748;2023-05-16T07:40:16;30.23;;;27.23;;
56319;SDS011;42226;42.382;23.748;2023-05-16T07:42:50;31.75;;;28.35;;
56319;SDS011;42226;42.382;23.748;2023-05-16T07:45:17;27.70;;;25.00;;
56319;SDS011;42226;42.382;23.748;2023-05-16T07:47:44;28.92;;;25.83;;
56319;SDS011;42226;42.382;23.748;2023-05-16T07:50:11;30.13;;;26.75;;
56319;SDS011;42226;42.382;23.748;2023-05-16T07:52:38;32.42;;;28.63;;
56319;SDS011;42226;42.382;23.748;2023-05-16T07:55:06;30.38;;;27.10;;
56319;SDS011;42226;42.382;23.748;2023-05-16T07:57:34;28.33;;;25.33;;
56319;SDS011;42226;42.382;23.748;2023-05-16T08:00:02;27.95;;;25.05;;
56319;SDS011;42226;42.382;23.748;2023-05-16T08:02:29;27.95;;;24.98;;
56319;SDS011;42226;42.382;23.748;2023-05-16T08:04:56;26.67;;;23.60;;
56319;SDS011;42226;42.382;23.748;2023-05-16T08:07:24;27.63;;;24.88;;
56319;SDS011;42226;42.382;23.748;2023-05-16T08:09:52;27.98;;;25.15;;
56319;SDS011;42226;42.382;23.748;2023-05-16T08:12:18;28.08;;;25.27;;
56319;SDS011;42226;42.382;23.748;2023-05-16T08:14:45;26.92;;;23.98;;
56319;SDS011;42226;42.382;23.748;2023-05-16T08:17:12;29.40;;;26.30;;
56319;SDS011;42226;42.382;23.748;2023-05-16T08:19:39;23.20;;;21.00;;
56319;SDS011;42226;42.382;23.748;2023-05-16T08:22:07;25.40;;;22.83;;
56319;SDS011;42226;42.382;23.748;2023-05-16T08:24:34;24.65;;;22.15;;
56319;SDS011;42226;42.382;23.748;2023-05-16T08:27:02;23.95;;;21.45;;
56319;SDS011;42226;42.382;23.748;2023-05-16T08:29:30;23.70;;;21.38;;
56319;SDS011;42226;42.382;23.748;2023-05-16T08:31:57;27.25;;;24.35;;
56319;SDS011;42226;42.382;23.748;2023-05-16T08:34:24;24.98;;;22.40;;
56319;SDS011;42226;42.382;23.748;2023-05-16T08:36:51;24.10;;;21.30;;
56319;SDS011;42226;42.382;23.748;2023-05-16T08:39:18;24.65;;;22.15;;
56319;SDS011;42226;42.382;23.748;2023-05-16T08:41:45;26.10;;;22.75;;
56319;SDS011;42226;42.382;23.748;2023-05-16T08:44:14;24.73;;;22.20;;
56319;SDS011;42226;42.382;23.748;2023-05-16T08:46:54;23.67;;;21.45;;
56319;SDS011;42226;42.382;23.748;2023-05-16T08:49:27;22.38;;;19.98;;
56319;SDS011;42226;42.382;23.748;2023-05-16T08:51:56;21.92;;;19.75;;
56319;SDS011;42226;42.382;23.748;2023-05-16T08:54:26;20.98;;;18.90;;
56319;SDS011;42226;42.382;23.748;2023-05-16T08:56:54;21.77;;;19.50;;
56319;SDS011;42226;42.382;23.748;2023-05-16T08:59:22;23.15;;;20.85;;
56319;SDS011;42226;42.382;23.748;2023-05-16T09:01:49;21.90;;;19.77;;
56319;SDS011;42226;42.382;23.748;2023-05-16T09:04:17;21.27;;;18.90;;
56319;SDS011;42226;42.382;23.748;2023-05-16T09:06:44;20.38;;;18.48;;
56319;SDS011;42226;42.382;23.748;2023-05-16T09:09:13;20.92;;;18.25;;
56319;SDS011;42226;42.382;23.748;2023-05-16T09:11:39;21.80;;;19.65;;
56319;SDS011;42226;42.382;23.748;2023-05-16T09:14:08;19.02;;;17.25;;
56319;SDS011;42226;42.382;23.748;2023-05-16T09:16:35;20.58;;;18.23;;
56319;SDS011;42226;42.382;23.748;2023-05-16T09:19:02;18.45;;;16.52;;
56319;SDS011;42226;42.382;23.748;2023-05-16T09:21:33;19.90;;;18.08;;
56319;SDS011;42226;42.382;23.748;2023-05-16T09:24:05;21.92;;;16.75;;
56319;SDS011;42226;42.382;23.748;2023-05-16T09:26:34;19.80;;;17.90;;
56319;SDS011;42226;42.382;23.748;2023-05-16T09:29:10;19.80;;;17.98;;
56319;SDS011;42226;42.382;23.748;2023-05-16T09:31:40;20.75;;;18.58;;
56319;SDS011;42226;42.382;23.748;2023-05-16T09:34:07;18.52;;;16.75;;
56319;SDS011;42226;42.382;23.748;2023-05-16T09:36:38;19.83;;;17.63;;
56319;SDS011;42226;42.382;23.748;2023-05-16T09:39:07;18.58;;;16.77;;
56319;SDS011;42226;42.382;23.748;2023-05-16T09:41:33;18.15;;;16.55;;
56319;SDS011;42226;42.382;23.748;2023-05-16T09:44:04;21.10;;;19.08;;
56319;SDS011;42226;42.382;23.748;2023-05-16T09:46:33;19.67;;;17.60;;
56319;SDS011;42226;42.382;23.748;2023-05-16T09:49:02;18.30;;;16.15;;
56319;SDS011;42226;42.382;23.748;2023-05-16T09:51:28;19.10;;;17.30;;
56319;SDS011;42226;42.382;23.748;2023-05-16T09:53:57;18.58;;;16.73;;
56319;SDS011;42226;42.382;23.748;2023-05-16T09:56:25;20.27;;;18.15;;
56319;SDS011;42226;42.382;23.748;2023-05-16T09:58:53;17.50;;;15.93;;
56319;SDS011;42226;42.382;23.748;2023-05-16T10:01:20;17.98;;;16.25;;
56319;SDS011;42226;42.382;23.748;2023-05-16T10:03:49;18.63;;;16.73;;
56319;SDS011;42226;42.382;23.748;2023-05-16T10:06:16;19.65;;;17.60;;
56319;SDS011;42226;42.382;23.748;2023-05-16T10:08:44;19.55;;;17.55;;
56319;SDS011;42226;42.382;23.748;2023-05-16T10:11:13;18.13;;;16.38;;
56319;SDS011;42226;42.382;23.748;2023-05-16T10:13:40;18.92;;;17.02;;
56319;SDS011;42226;42.382;23.748;2023-05-16T10:16:10;19.45;;;17.50;;
56319;SDS011;42226;42.382;23.748;2023-05-16T10:18:38;20.38;;;18.27;;
56319;SDS011;42226;42.382;23.748;2023-05-16T10:21:12;19.27;;;17.48;;
56319;SDS011;42226;42.382;23.748;2023-05-16T10:23:42;16.85;;;15.25;;
56319;SDS011;42226;42.382;23.748;2023-05-16T10:26:14;17.92;;;16.17;;
56319;SDS011;42226;42.382;23.748;2023-05-16T10:28:42;18.92;;;17.23;;
56319;SDS011;42226;42.382;23.748;2023-05-16T10:31:10;17.10;;;15.50;;
56319;SDS011;42226;42.382;23.748;2023-05-16T10:33:37;17.77;;;15.98;;
56319;SDS011;42226;42.382;23.748;2023-05-16T10:36:05;20.98;;;17.70;;
56319;SDS011;42226;42.382;23.748;2023-05-16T10:38:33;17.33;;;15.57;;
56319;SDS011;42226;42.382;23.748;2023-05-16T10:41:02;17.98;;;15.55;;
56319;SDS011;42226;42.382;23.748;2023-05-16T10:43:31;16.83;;;15.25;;
56319;SDS011;42226;42.382;23.748;2023-05-16T10:46:02;15.60;;;13.48;;
56319;SDS011;42226;42.382;23.748;2023-05-16T10:48:34;16.08;;;13.98;;
56319;SDS011;42226;42.382;23.748;2023-05-16T10:54:07;15.90;;;14.32;;
56319;SDS011;42226;42.382;23.748;2023-05-16T10:56:36;16.92;;;15.23;;
56319;SDS011;42226;42.382;23.748;2023-05-16T10:59:04;15.13;;;13.60;;
56319;SDS011;42226;42.382;23.748;2023-05-16T11:01:52;15.82;;;14.30;;
56319;SDS011;42226;42.382;23.748;2023-05-16T11:04:21;17.70;;;14.65;;
56319;SDS011;42226;42.382;23.748;2023-05-16T11:06:51;17.33;;;15.60;;
56319;SDS011;42226;42.382;23.748;2023-05-16T11:09:22;16.88;;;15.10;;
56319;SDS011;42226;42.382;23.748;2023-05-16T11:14:34;16.30;;;14.57;;
56319;SDS011;42226;42.382;23.748;2023-05-16T11:17:08;17.35;;;15.68;;
56319;SDS011;42226;42.382;23.748;2023-05-16T11:19:44;16.05;;;14.65;;
56319;SDS011;42226;42.382;23.748;2023-05-16T11:27:35;15.70;;;14.10;;
56319;SDS011;42226;42.382;23.748;2023-05-16T11:30:12;15.40;;;13.77;;
56319;SDS011;42226;42.382;23.748;2023-05-16T11:32:46;14.68;;;12.57;;
56319;SDS011;42226;42.382;23.748;2023-05-16T11:35:16;14.27;;;12.32;;
56319;SDS011;42226;42.382;23.748;2023-05-16T11:37:43;13.70;;;12.30;;
56319;SDS011;42226;42.382;23.748;2023-05-16T11:40:12;13.43;;;12.20;;
56319;SDS011;42226;42.382;23.748;2023-05-16T11:42:44;13.98;;;12.77;;
56319;SDS011;42226;42.382;23.748;2023-05-16T11:45:19;14.60;;;12.38;;
56319;SDS011;42226;42.382;23.748;2023-05-16T11:47:49;14.93;;;11.68;;
56319;SDS011;42226;42.382;23.748;2023-05-16T11:50:18;13.80;;;12.43;;
56319;SDS011;42226;42.382;23.748;2023-05-16T11:52:48;15.40;;;13.82;;
56319;SDS011;42226;42.382;23.748;2023-05-16T11:55:23;13.98;;;12.45;;
56319;SDS011;42226;42.382;23.748;2023-05-16T11:57:58;12.82;;;11.52;;
56319;SDS011;42226;42.382;23.748;2023-05-16T12:00:28;13.80;;;12.48;;
56319;SDS011;42226;42.382;23.748;2023-05-16T12:02:59;13.00;;;11.70;;
56319;SDS011;42226;42.382;23.748;2023-05-16T12:05:30;12.50;;;11.20;;
56319;SDS011;42226;42.382;23.748;2023-05-16T12:07:57;17.23;;;13.65;;
56319;SDS011;42226;42.382;23.748;2023-05-16T12:10:24;15.13;;;13.52;;
56319;SDS011;42226;42.382;23.748;2023-05-16T12:12:51;14.07;;;12.45;;
56319;SDS011;42226;42.382;23.748;2023-05-16T12:15:19;12.18;;;10.70;;
56319;SDS011;42226;42.382;23.748;2023-05-16T12:17:47;12.70;;;11.30;;
56319;SDS011;42226;42.382;23.748;2023-05-16T12:20:15;11.73;;;10.38;;
56319;SDS011;42226;42.382;23.748;2023-05-16T12:22:43;12.82;;;9.73;;
56319;SDS011;42226;42.382;23.748;2023-05-16T12:25:29;14.52;;;10.65;;
56319;SDS011;42226;42.382;23.748;2023-05-16T12:28:02;11.05;;;9.05;;
56319;SDS011;42226;42.382;23.748;2023-05-16T12:30:33;10.85;;;9.77;;
56319;SDS011;42226;42.382;23.748;2023-05-16T12:35:33;10.50;;;9.50;;
56319;SDS011;42226;42.382;23.748;2023-05-16T12:38:03;10.98;;;8.75;;
56319;SDS011;42226;42.382;23.748;2023-05-16T12:40:35;11.55;;;7.65;;
56319;SDS011;42226;42.382;23.748;2023-05-16T12:43:13;13.15;;;8.13;;
56319;SDS011;42226;42.382;23.748;2023-05-16T12:45:52;9.63;;;7.90;;
56319;SDS011;42226;42.382;23.748;2023-05-16T12:48:28;11.32;;;7.57;;
56319;SDS011;42226;42.382;23.748;2023-05-16T12:51:11;10.00;;;6.90;;
56319;SDS011;42226;42.382;23.748;2023-05-16T12:53:44;8.57;;;6.75;;
56319;SDS011;42226;42.382;23.748;2023-05-16T12:56:13;12.95;;;7.38;;
56319;SDS011;42226;42.382;23.748;2023-05-16T12:58:41;10.10;;;6.68;;
56319;SDS011;42226;42.382;23.748;2023-05-16T13:01:08;8.68;;;6.55;;
56319;SDS011;42226;42.382;23.748;2023-05-16T13:03:36;10.98;;;6.45;;
56319;SDS011;42226;42.382;23.748;2023-05-16T13:06:02;9.60;;;6.40;;
56319;SDS011;42226;42.382;23.748;2023-05-16T13:08:31;8.85;;;6.60;;
56319;SDS011;42226;42.382;23.748;2023-05-16T13:10:57;9.80;;;6.88;;
56319;SDS011;42226;42.382;23.748;2023-05-16T13:13:25;8.82;;;6.85;;
56319;SDS011;42226;42.382;23.748;2023-05-16T13:15:51;9.18;;;7.35;;
56319;SDS011;42226;42.382;23.748;2023-05-16T13:18:20;9.88;;;7.53;;
56319;SDS011;42226;42.382;23.748;2023-05-16T13:20:48;9.70;;;7.75;;
56319;SDS011;42226;42.382;23.748;2023-05-16T13:23:16;10.68;;;8.25;;
56319;SDS011;42226;42.382;23.748;2023-05-16T13:25:42;9.25;;;8.27;;
56319;SDS011;42226;42.382;23.748;2023-05-16T13:28:09;12.13;;;9.30;;
56319;SDS011;42226;42.382;23.748;2023-05-16T13:30:36;12.23;;;9.75;;
56319;SDS011;42226;42.382;23.748;2023-05-16T13:33:03;12.63;;;11.00;;
56319;SDS011;42226;42.382;23.748;2023-05-16T13:35:30;11.95;;;10.85;;
56319;SDS011;42226;42.382;23.748;2023-05-16T13:37:57;13.63;;;12.43;;
56319;SDS011;42226;42.382;23.748;2023-05-16T13:40:24;12.85;;;11.52;;
56319;SDS011;42226;42.382;23.748;2023-05-16T13:42:53;13.48;;;12.02;;
56319;SDS011;42226;42.382;23.748;2023-05-16T13:45:21;13.15;;;11.82;;
56319;SDS011;42226;42.382;23.748;2023-05-16T13:47:49;14.32;;;12.15;;
56319;SDS011;42226;42.382;23.748;2023-05-16T13:50:15;12.85;;;11.65;;
56319;SDS011;42226;42.382;23.748;2023-05-16T13:52:43;13.63;;;12.20;;
56319;SDS011;42226;42.382;23.748;2023-05-16T13:55:11;13.63;;;12.23;;
56319;SDS011;42226;42.382;23.748;2023-05-16T13:57:39;15.38;;;13.77;;
56319;SDS011;42226;42.382;23.748;2023-05-16T14:00:06;15.77;;;13.57;;
56319;SDS011;42226;42.382;23.748;2023-05-16T14:02:40;15.43;;;13.98;;
56319;SDS011;42226;42.382;23.748;2023-05-16T14:05:07;17.08;;;15.45;;
56319;SDS011;42226;42.382;23.748;2023-05-16T14:07:35;17.35;;;15.75;;
56319;SDS011;42226;42.382;23.748;2023-05-16T14:10:02;18.02;;;16.20;;
56319;SDS011;42226;42.382;23.748;2023-05-16T14:12:31;19.38;;;17.38;;
56319;SDS011;42226;42.382;23.748;2023-05-16T14:14:58;20.58;;;18.67;;
56319;SDS011;42226;42.382;23.748;2023-05-16T14:17:26;20.20;;;18.33;;
56319;SDS011;42226;42.382;23.748;2023-05-16T14:19:53;19.85;;;17.85;;
56319;SDS011;42226;42.382;23.748;2023-05-16T14:22:20;18.98;;;17.15;;
56319;SDS011;42226;42.382;23.748;2023-05-16T14:24:48;21.10;;;19.10;;
56319;SDS011;42226;42.382;23.748;2023-05-16T14:27:15;23.90;;;21.65;;
56319;SDS011;42226;42.382;23.748;2023-05-16T14:29:42;23.08;;;20.92;;
56319;SDS011;42226;42.382;23.748;2023-05-16T14:32:09;24.08;;;21.50;;
56319;SDS011;42226;42.382;23.748;2023-05-16T14:34:36;23.85;;;21.65;;
56319;SDS011;42226;42.382;23.748;2023-05-16T14:37:04;25.63;;;23.10;;
56319;SDS011;42226;42.382;23.748;2023-05-16T14:39:31;24.48;;;22.08;;